Juazeiro do Norte, Brazil
Current Conditions -  °F | °C
As of 11:00 PM on Sunday 23 Nov 2014 (Local Time) from SBJU Reporting Station
Clear Clear  
Wind Chill: 81°   Ceiling: Unl
Heat Index: 83°   Visibility: 6mi
Dew Point: 68°   Wind: 0mph
Humidity: 65%   Direction: NA
Pressure: 30"   Gusts: NA
Location:  7.21°S, 39.32°W
Report Text: SBJU 240200Z 00000KT CAVOK 27/20 Q1016
Loading
Personal Weather Stations






























Interactive Weather Map New forecast layout! Learn more

10-Day Weather Forecast

Advertisements
Track Severe Weather on mobile